createdAt,value
2018-12-06T00:00:06.851Z,7.28
2018-12-06T00:02:35.358Z,7.90
2018-12-06T00:05:03.943Z,8.03
2018-12-06T00:07:32.769Z,8.05
2018-12-06T00:10:01.281Z,7.80
2018-12-06T00:12:30.119Z,6.78
2018-12-06T00:15:09.895Z,7.65
2018-12-06T00:17:39.710Z,7.17
2018-12-06T00:20:08.549Z,8.38
2018-12-06T00:22:37.406Z,6.97
2018-12-06T00:25:05.917Z,6.72
2018-12-06T00:27:34.447Z,8.43
2018-12-06T00:30:14.220Z,6.90
2018-12-06T00:32:43.389Z,6.42
2018-12-06T00:35:12.245Z,7.25
2018-12-06T00:37:41.370Z,6.72
2018-12-06T00:40:09.889Z,7.80
2018-12-06T00:42:38.720Z,7.65
2018-12-06T00:45:07.897Z,8.10
2018-12-06T00:47:36.410Z,6.40
2018-12-06T00:50:04.988Z,7.03
2018-12-06T00:52:33.500Z,6.95
2018-12-06T00:55:02.361Z,8.18
2018-12-06T00:57:31.531Z,7.33
2018-12-06T01:00:00.737Z,7.72
2018-12-06T01:02:29.240Z,6.40
2018-12-06T01:04:57.746Z,7.62
2018-12-06T01:07:26.593Z,8.63
2018-12-06T01:09:55.109Z,7.22
2018-12-06T01:12:23.959Z,7.55
2018-12-06T01:14:52.476Z,8.05
2018-12-06T01:17:20.993Z,6.72
2018-12-06T01:19:49.500Z,7.40
2018-12-06T01:22:18.005Z,9.25
2018-12-06T01:24:46.543Z,8.50
2018-12-06T01:27:15.416Z,8.30
2018-12-06T01:29:43.973Z,8.13
2018-12-06T01:32:12.488Z,8.45
2018-12-06T01:34:41.351Z,7.87
2018-12-06T01:37:09.859Z,8.60
2018-12-06T01:39:38.702Z,9.05
2018-12-06T01:42:07.568Z,7.28
2018-12-06T01:44:36.101Z,7.45
2018-12-06T01:47:04.708Z,8.85
2018-12-06T01:49:33.546Z,8.50
2018-12-06T01:52:02.073Z,8.63
2018-12-06T01:54:30.560Z,8.48
2018-12-06T01:56:59.241Z,8.13
2018-12-06T01:59:28.071Z,7.87
2018-12-06T02:01:56.555Z,7.72
2018-12-06T02:04:25.408Z,8.05
2018-12-06T02:06:53.904Z,8.68
2018-12-06T02:09:22.391Z,8.43
2018-12-06T02:11:51.229Z,8.50
2018-12-06T02:14:20.069Z,7.20
2018-12-06T02:16:48.897Z,7.25
2018-12-06T02:19:18.055Z,7.08
2018-12-06T02:21:47.222Z,8.60
2018-12-06T02:24:16.066Z,8.25
2018-12-06T02:26:44.561Z,9.23
2018-12-06T02:29:13.426Z,7.80
2018-12-06T02:31:42.253Z,7.95
2018-12-06T02:34:11.079Z,7.35
2018-12-06T02:36:39.598Z,7.22
2018-12-06T02:39:08.378Z,7.00
2018-12-06T02:41:37.252Z,7.65
2018-12-06T02:44:06.440Z,7.25
2018-12-06T02:46:34.991Z,7.70
2018-12-06T02:49:03.881Z,7.62
2018-12-06T02:51:32.392Z,6.80
2018-12-06T02:54:00.893Z,6.17
2018-12-06T02:56:29.770Z,6.75
2018-12-06T02:58:58.652Z,6.65
2018-12-06T03:01:27.172Z,6.53
2018-12-06T03:03:55.953Z,5.83
2018-12-06T03:06:25.124Z,6.42
2018-12-06T03:08:53.640Z,7.28
2018-12-06T03:11:22.177Z,5.87
2018-12-06T03:13:50.705Z,6.03
2018-12-06T03:16:19.237Z,5.53
2018-12-06T03:18:47.770Z,7.25
2018-12-06T03:21:16.671Z,6.55
2018-12-06T03:23:45.993Z,5.30
2018-12-06T03:26:14.494Z,7.12
2018-12-06T03:28:43.353Z,6.60
2018-12-06T03:31:11.875Z,5.30
2018-12-06T03:33:40.373Z,4.37
2018-12-06T03:36:09.184Z,6.47
2018-12-06T03:38:38.010Z,5.22
2018-12-06T03:41:06.559Z,5.00
2018-12-06T03:43:35.400Z,5.75
2018-12-06T03:46:03.911Z,5.08
2018-12-06T03:48:32.737Z,4.87
2018-12-06T03:51:01.225Z,5.33
2018-12-06T03:53:29.731Z,8.18
2018-12-06T03:55:58.549Z,6.72
2018-12-06T03:58:27.717Z,6.20
2018-12-06T04:00:56.538Z,5.25
2018-12-06T04:03:25.363Z,4.50
2018-12-06T04:05:53.863Z,4.83
2018-12-06T04:08:22.692Z,4.67
2018-12-06T04:10:51.209Z,5.50
2018-12-06T04:13:19.713Z,4.85
2018-12-06T04:15:48.569Z,5.00
2018-12-06T04:18:17.461Z,4.53
2018-12-06T04:20:46.299Z,6.33
2018-12-06T04:23:14.831Z,5.20
2018-12-06T04:25:43.652Z,5.75
2018-12-06T04:28:12.149Z,3.70
2018-12-06T04:30:40.972Z,4.00
2018-12-06T04:33:09.457Z,5.12
2018-12-06T04:35:38.297Z,5.40
2018-12-06T04:38:06.787Z,5.22
2018-12-06T04:40:35.944Z,6.03
2018-12-06T04:43:04.752Z,5.22
2018-12-06T04:45:33.586Z,6.70
2018-12-06T04:48:02.101Z,6.40
2018-12-06T04:50:30.591Z,5.78
2018-12-06T04:52:59.755Z,5.80
2018-12-06T04:55:28.251Z,6.30
2018-12-06T04:57:56.761Z,7.33
2018-12-06T05:00:25.600Z,7.83
2018-12-06T05:02:54.102Z,13.65
2018-12-06T05:05:22.972Z,9.43
2018-12-06T05:07:51.522Z,8.93
2018-12-06T05:10:20.360Z,7.60
2018-12-06T05:12:53.554Z,9.03
2018-12-06T05:15:22.663Z,8.43
2018-12-06T05:17:52.092Z,7.33
2018-12-06T05:20:21.468Z,7.95
2018-12-06T05:22:49.951Z,7.65
2018-12-06T05:25:18.427Z,6.87
2018-12-06T05:27:48.292Z,8.23
2018-12-06T05:30:17.595Z,7.92
2018-12-06T05:32:47.808Z,7.08
2018-12-06T05:35:17.161Z,7.80
2018-12-06T05:37:46.035Z,7.28
2018-12-06T05:40:14.562Z,7.97
2018-12-06T05:42:43.110Z,8.90
2018-12-06T05:45:11.975Z,6.97
2018-12-06T05:47:40.488Z,6.33
2018-12-06T05:50:09.426Z,7.80
2018-12-06T05:52:37.932Z,7.87
2018-12-06T05:55:06.831Z,7.60
2018-12-06T05:57:35.351Z,6.62
2018-12-06T06:00:04.632Z,7.05
2018-12-06T06:02:34.310Z,9.38
2018-12-06T06:05:02.794Z,8.53
2018-12-06T06:07:31.615Z,6.70
2018-12-06T06:10:00.155Z,6.80
2018-12-06T06:35:52.357Z,7.28
2018-12-06T06:56:20.191Z,7.30
2018-12-06T06:58:49.518Z,6.47
2018-12-06T07:01:22.334Z,6.67
2018-12-06T07:03:51.330Z,6.85
2018-12-06T07:09:32.538Z,7.10
2018-12-06T07:19:06.840Z,6.67
2018-12-06T07:21:37.613Z,6.22
2018-12-06T07:24:07.143Z,6.58
2018-12-06T07:26:36.800Z,7.20
2018-12-06T07:29:06.697Z,7.85
2018-12-06T07:31:37.213Z,6.37
2018-12-06T07:34:07.219Z,7.20
2018-12-06T07:36:37.435Z,7.60
2018-12-06T07:39:08.315Z,7.00
2018-12-06T07:41:37.511Z,7.10
2018-12-06T07:44:07.139Z,7.28
2018-12-06T07:46:36.871Z,8.10
2018-12-06T07:49:06.291Z,7.80
2018-12-06T07:51:35.167Z,8.15
2018-12-06T07:54:04.329Z,7.72
2018-12-06T07:56:38.217Z,6.72
2018-12-06T07:59:08.777Z,7.55
2018-12-06T08:01:37.950Z,6.60
2018-12-06T08:04:07.132Z,7.40
2018-12-06T08:06:36.673Z,7.92
2018-12-06T08:09:08.445Z,7.10
2018-12-06T08:11:38.756Z,7.12
2018-12-06T08:14:06.601Z,5.95
2018-12-06T08:16:36.054Z,7.22
2018-12-06T08:19:06.259Z,7.00
2018-12-06T08:21:39.994Z,7.42
2018-12-06T08:24:10.776Z,7.17
2018-12-06T08:26:39.652Z,8.25
2018-12-06T08:29:09.347Z,7.53
2018-12-06T08:31:42.769Z,8.15
2018-12-06T08:34:11.700Z,7.10
2018-12-06T08:36:40.237Z,7.58
2018-12-06T08:39:12.441Z,7.70
2018-12-06T09:02:14.625Z,8.13
2018-12-06T09:13:38.713Z,7.80
2018-12-06T09:17:09.062Z,8.05
2018-12-06T09:37:38.012Z,6.85
2018-12-06T09:45:46.276Z,8.33
2018-12-06T09:48:26.657Z,6.85
2018-12-06T09:54:05.719Z,7.28
2018-12-06T09:57:06.149Z,7.80
2018-12-06T10:00:04.506Z,7.53
2018-12-06T10:03:09.925Z,8.83
2018-12-06T10:05:51.600Z,9.15
2018-12-06T10:08:35.810Z,8.20
2018-12-06T10:19:39.189Z,7.67
2018-12-06T10:25:29.288Z,7.15
2018-12-06T10:39:55.447Z,8.15
2018-12-06T10:42:57.541Z,7.22
2018-12-06T10:45:49.235Z,9.18
2018-12-06T10:48:29.380Z,7.75
2018-12-06T10:51:11.239Z,7.67
2018-12-06T10:53:45.923Z,8.33
2018-12-06T10:56:27.399Z,8.48
2018-12-06T11:02:09.251Z,7.58
2018-12-06T11:07:45.597Z,8.43
2018-12-06T11:13:22.783Z,8.85
2018-12-06T11:16:02.966Z,9.03
2018-12-06T11:18:36.433Z,8.40
2018-12-06T11:21:17.044Z,8.85
2018-12-06T11:29:33.864Z,9.68
2018-12-06T11:32:16.734Z,8.88
2018-12-06T11:34:53.719Z,9.28
2018-12-06T11:37:55.171Z,8.95
2018-12-06T11:40:29.740Z,8.93
2018-12-06T11:43:08.598Z,10.70
2018-12-06T11:45:50.826Z,9.45
2018-12-06T11:48:32.838Z,10.50
2018-12-06T11:51:09.121Z,10.70
2018-12-06T11:53:50.855Z,9.28
2018-12-06T11:56:33.097Z,11.45
2018-12-06T11:59:11.683Z,11.88
2018-12-06T12:01:58.374Z,11.15
2018-12-06T12:04:45.556Z,10.48
2018-12-06T12:07:36.736Z,10.55
2018-12-06T12:10:19.685Z,10.15
2018-12-06T12:13:28.282Z,9.05
2018-12-06T12:19:09.996Z,11.05
2018-12-06T12:21:58.189Z,11.43
2018-12-06T12:31:14.949Z,11.20
2018-12-06T12:36:41.324Z,10.95
2018-12-06T12:39:26.100Z,10.05
2018-12-06T12:53:23.147Z,9.50
2018-12-06T12:56:06.062Z,9.83
2018-12-06T13:01:17.026Z,10.08
2018-12-06T13:03:55.419Z,11.53
2018-12-06T13:06:34.600Z,11.75
2018-12-06T13:09:25.948Z,12.70
2018-12-06T13:12:15.677Z,11.30
2018-12-06T13:14:57.357Z,10.80
2018-12-06T13:20:32.648Z,11.00
2018-12-06T13:23:17.853Z,12.45
2018-12-06T13:26:03.963Z,12.00
2018-12-06T13:28:49.141Z,12.60
2018-12-06T13:31:26.704Z,13.25
2018-12-06T13:34:06.607Z,12.78
2018-12-06T13:36:46.035Z,11.18
2018-12-06T13:41:59.598Z,14.03
2018-12-06T13:50:58.944Z,13.58
2018-12-06T13:53:45.750Z,14.30
2018-12-06T13:56:25.739Z,13.65
2018-12-06T13:59:05.727Z,13.13
2018-12-06T14:03:23.881Z,15.03
2018-12-06T14:08:54.062Z,15.08
2018-12-06T14:11:49.643Z,14.05
2018-12-06T14:17:33.727Z,14.90
2018-12-06T14:20:12.410Z,13.80
2018-12-06T14:23:04.233Z,14.93
2018-12-06T14:26:09.014Z,14.68
2018-12-06T14:34:43.596Z,15.72
2018-12-06T14:54:55.040Z,17.87
2018-12-06T14:58:02.692Z,20.40
2018-12-06T15:01:45.191Z,19.23
2018-12-06T15:07:29.821Z,19.12
2018-12-06T15:10:08.889Z,20.08
2018-12-06T15:12:48.244Z,22.35
2018-12-06T15:15:28.544Z,20.20
2018-12-06T15:18:05.202Z,22.60
2018-12-06T15:20:44.582Z,24.77
2018-12-06T15:23:17.686Z,23.73
2018-12-06T15:25:55.273Z,20.48
2018-12-06T15:28:32.120Z,19.10
2018-12-06T15:31:12.334Z,19.55
2018-12-06T15:33:50.231Z,20.00
2018-12-06T15:36:30.686Z,19.55
2018-12-06T15:39:15.780Z,19.37
2018-12-06T15:45:02.860Z,20.30
2018-12-06T15:47:46.412Z,18.48
2018-12-06T15:50:22.607Z,21.30
2018-12-06T15:53:00.898Z,19.17
2018-12-06T15:55:42.574Z,19.23
2018-12-06T16:01:19.904Z,23.52
2018-12-06T16:03:59.605Z,25.52
2018-12-06T16:09:23.289Z,20.35
2018-12-06T16:12:20.237Z,20.10
2018-12-06T16:18:32.647Z,19.62
2018-12-06T16:40:11.814Z,19.30
2018-12-06T16:42:47.426Z,23.83
2018-12-06T16:45:28.604Z,23.92
2018-12-06T16:48:10.005Z,20.02
2018-12-06T16:50:38.536Z,16.65
2018-12-06T16:53:07.019Z,18.82
2018-12-06T16:55:35.517Z,19.82
2018-12-06T16:58:04.610Z,18.87
2018-12-06T17:00:33.091Z,19.25
2018-12-06T17:03:01.705Z,18.02
2018-12-06T17:05:30.466Z,18.75
2018-12-06T17:07:59.085Z,18.75
2018-12-06T17:10:27.678Z,19.62
2018-12-06T17:12:56.327Z,18.92
2018-12-06T17:15:25.698Z,19.32
2018-12-06T17:17:54.582Z,20.23
2018-12-06T17:20:27.053Z,18.65
2018-12-06T17:22:56.893Z,19.27
2018-12-06T17:25:26.240Z,17.98
2018-12-06T17:27:55.504Z,19.30
2018-12-06T17:30:24.811Z,19.25
2018-12-06T17:32:56.151Z,18.60
2018-12-06T17:35:24.683Z,19.87
2018-12-06T17:37:53.243Z,20.75
2018-12-06T17:40:22.445Z,18.82
2018-12-06T17:42:50.943Z,19.98
2018-12-06T17:45:19.946Z,20.55
2018-12-06T17:47:49.124Z,19.52
2018-12-06T17:53:52.383Z,19.67
2018-12-06T17:56:18.484Z,19.75
2018-12-06T17:58:47.571Z,26.90
2018-12-06T18:01:16.269Z,21.80
2018-12-06T18:03:47.250Z,21.82
2018-12-06T18:06:15.758Z,20.52
2018-12-06T18:08:46.124Z,17.70
2018-12-06T18:11:15.998Z,19.67
2018-12-06T18:13:45.154Z,18.52
2018-12-06T18:16:19.525Z,18.75
2018-12-06T18:19:21.606Z,18.48
2018-12-06T18:28:00.274Z,18.73
2018-12-06T18:33:13.896Z,18.05
2018-12-06T18:35:49.997Z,18.50
2018-12-06T18:38:20.228Z,18.37
2018-12-06T18:40:48.900Z,20.55
2018-12-06T18:43:17.663Z,19.42
2018-12-06T18:45:47.276Z,18.57
2018-12-06T18:48:16.306Z,19.40
2018-12-06T18:50:53.693Z,19.92
2018-12-06T18:53:26.266Z,20.55
2018-12-06T18:56:52.347Z,19.00
2018-12-06T19:24:22.439Z,21.45
2018-12-06T19:26:56.966Z,21.02
2018-12-06T19:29:28.559Z,22.65
2018-12-06T19:34:59.193Z,23.50
2018-12-06T19:58:45.600Z,21.73
2018-12-06T20:04:07.220Z,22.55
2018-12-06T20:06:37.310Z,21.70
2018-12-06T20:09:14.031Z,21.65
2018-12-06T20:24:05.394Z,22.80
2018-12-06T20:26:40.648Z,23.12
2018-12-06T20:29:13.040Z,23.47
2018-12-06T20:32:03.233Z,23.30
2018-12-06T20:47:46.874Z,21.77
2018-12-06T20:50:21.523Z,22.85
2018-12-06T20:53:37.072Z,22.32
2018-12-06T20:56:11.129Z,23.47
2018-12-06T20:58:51.737Z,22.35
2018-12-06T21:01:30.968Z,21.90
2018-12-06T21:23:52.463Z,22.58
2018-12-06T21:42:15.833Z,23.35
2018-12-06T21:44:44.686Z,24.15
2018-12-06T22:14:31.122Z,22.20
